sensor_id;sensor_type;location;lat;lon;timestamp;pressure;altitude;pressure_sealevel;temperature;humidity
71917;BME280;59793;46.506;6.674;2022-11-15T00:02:17;97070.03;;;11.09;81.09
71917;BME280;59793;46.506;6.674;2022-11-15T00:04:42;97072.09;;;10.99;81.40
71917;BME280;59793;46.506;6.674;2022-11-15T00:07:07;97079.56;;;10.97;81.22
71917;BME280;59793;46.506;6.674;2022-11-15T00:09:32;97073.97;;;10.99;80.93
71917;BME280;59793;46.506;6.674;2022-11-15T00:11:57;97079.09;;;10.92;80.71
71917;BME280;59793;46.506;6.674;2022-11-15T00:14:23;97077.56;;;10.75;81.06
71917;BME280;59793;46.506;6.674;2022-11-15T00:16:48;97075.91;;;10.70;81.15
71917;BME280;59793;46.506;6.674;2022-11-15T00:19:13;97071.59;;;10.78;80.69
71917;BME280;59793;46.506;6.674;2022-11-15T00:21:38;97060.78;;;10.99;79.85
71917;BME280;59793;46.506;6.674;2022-11-15T00:24:04;97049.09;;;11.16;79.35
71917;BME280;59793;46.506;6.674;2022-11-15T00:26:29;97044.13;;;11.30;78.97
71917;BME280;59793;46.506;6.674;2022-11-15T00:28:54;97038.78;;;11.27;79.23
71917;BME280;59793;46.506;6.674;2022-11-15T00:31:19;97038.16;;;11.33;79.00
71917;BME280;59793;46.506;6.674;2022-11-15T00:33:45;97024.28;;;11.36;78.91
71917;BME280;59793;46.506;6.674;2022-11-15T00:36:10;97036.03;;;11.39;78.83
71917;BME280;59793;46.506;6.674;2022-11-15T00:38:37;97024.31;;;11.56;77.59
71917;BME280;59793;46.506;6.674;2022-11-15T00:41:03;97032.50;;;11.51;78.70
71917;BME280;59793;46.506;6.674;2022-11-15T00:43:28;97034.28;;;11.46;79.57
71917;BME280;59793;46.506;6.674;2022-11-15T00:45:54;97042.63;;;11.48;79.51
71917;BME280;59793;46.506;6.674;2022-11-15T00:48:19;97051.25;;;11.45;79.62
71917;BME280;59793;46.506;6.674;2022-11-15T00:50:44;97053.19;;;11.48;79.58
71917;BME280;59793;46.506;6.674;2022-11-15T00:53:09;97042.72;;;11.52;79.64
71917;BME280;59793;46.506;6.674;2022-11-15T00:55:35;97047.19;;;11.52;79.67
71917;BME280;59793;46.506;6.674;2022-11-15T00:58:00;97047.69;;;11.38;80.25
71917;BME280;59793;46.506;6.674;2022-11-15T01:00:25;97038.09;;;11.30;80.92
71917;BME280;59793;46.506;6.674;2022-11-15T01:02:50;97034.25;;;11.27;81.11
71917;BME280;59793;46.506;6.674;2022-11-15T01:05:16;97031.53;;;11.23;81.18
71917;BME280;59793;46.506;6.674;2022-11-15T01:07:41;97026.34;;;11.27;80.78
71917;BME280;59793;46.506;6.674;2022-11-15T01:10:06;97030.09;;;11.26;80.57
71917;BME280;59793;46.506;6.674;2022-11-15T01:12:32;97023.56;;;11.20;80.47
71917;BME280;59793;46.506;6.674;2022-11-15T01:14:57;97024.13;;;11.29;80.00
71917;BME280;59793;46.506;6.674;2022-11-15T01:17:22;97020.19;;;11.39;79.46
71917;BME280;59793;46.506;6.674;2022-11-15T01:19:47;97017.28;;;11.44;78.94
71917;BME280;59793;46.506;6.674;2022-11-15T01:22:12;97009.72;;;11.42;79.86
71917;BME280;59793;46.506;6.674;2022-11-15T01:24:38;97006.50;;;11.33;79.74
71917;BME280;59793;46.506;6.674;2022-11-15T01:27:03;97002.41;;;11.36;79.43
71917;BME280;59793;46.506;6.674;2022-11-15T01:29:28;96997.66;;;11.41;78.54
71917;BME280;59793;46.506;6.674;2022-11-15T01:31:53;97001.13;;;11.45;78.29
71917;BME280;59793;46.506;6.674;2022-11-15T01:34:19;96998.63;;;11.53;78.25
71917;BME280;59793;46.506;6.674;2022-11-15T01:36:44;97003.97;;;11.56;77.73
71917;BME280;59793;46.506;6.674;2022-11-15T01:39:09;97004.22;;;11.51;76.93
71917;BME280;59793;46.506;6.674;2022-11-15T01:41:34;97005.56;;;11.61;76.88
71917;BME280;59793;46.506;6.674;2022-11-15T01:46:44;97007.63;;;11.71;76.95
71917;BME280;59793;46.506;6.674;2022-11-15T01:49:13;96991.50;;;11.76;77.40
71917;BME280;59793;46.506;6.674;2022-11-15T01:51:39;96994.16;;;11.76;77.73
71917;BME280;59793;46.506;6.674;2022-11-15T01:54:06;96988.47;;;11.74;77.20
71917;BME280;59793;46.506;6.674;2022-11-15T01:56:39;96966.47;;;11.66;77.34
71917;BME280;59793;46.506;6.674;2022-11-15T01:59:07;96987.06;;;11.80;78.17
71917;BME280;59793;46.506;6.674;2022-11-15T02:01:33;96976.47;;;11.77;78.47
71917;BME280;59793;46.506;6.674;2022-11-15T02:03:59;96979.38;;;11.71;78.56
71917;BME280;59793;46.506;6.674;2022-11-15T02:06:26;96976.66;;;11.68;79.05
71917;BME280;59793;46.506;6.674;2022-11-15T02:08:51;96966.53;;;11.70;78.29
71917;BME280;59793;46.506;6.674;2022-11-15T02:11:16;96959.69;;;11.69;77.11
71917;BME280;59793;46.506;6.674;2022-11-15T02:13:42;96950.84;;;11.58;77.97
71917;BME280;59793;46.506;6.674;2022-11-15T02:16:18;96949.72;;;11.59;76.91
71917;BME280;59793;46.506;6.674;2022-11-15T02:18:49;96939.03;;;11.52;75.29
71917;BME280;59793;46.506;6.674;2022-11-15T02:21:19;96936.34;;;11.29;74.77
71917;BME280;59793;46.506;6.674;2022-11-15T02:29:03;96936.13;;;11.18;73.37
71917;BME280;59793;46.506;6.674;2022-11-15T02:34:06;96933.00;;;11.12;72.15
71917;BME280;59793;46.506;6.674;2022-11-15T02:36:41;96931.69;;;11.22;72.98
71917;BME280;59793;46.506;6.674;2022-11-15T02:41:38;96936.06;;;11.14;74.84
71917;BME280;59793;46.506;6.674;2022-11-15T02:44:12;96941.47;;;11.21;75.22
71917;BME280;59793;46.506;6.674;2022-11-15T02:46:40;96932.81;;;11.21;74.39
71917;BME280;59793;46.506;6.674;2022-11-15T02:49:26;96932.53;;;11.26;74.43
71917;BME280;59793;46.506;6.674;2022-11-15T02:51:53;96926.22;;;11.11;75.74
71917;BME280;59793;46.506;6.674;2022-11-15T02:54:24;96929.34;;;11.17;75.22
71917;BME280;59793;46.506;6.674;2022-11-15T02:56:51;96922.81;;;11.11;74.27
71917;BME280;59793;46.506;6.674;2022-11-15T02:59:23;96924.00;;;11.13;73.84
71917;BME280;59793;46.506;6.674;2022-11-15T03:07:19;96918.94;;;11.24;74.53
71917;BME280;59793;46.506;6.674;2022-11-15T03:12:30;96910.88;;;11.17;74.57
71917;BME280;59793;46.506;6.674;2022-11-15T03:14:59;96897.34;;;11.18;75.61
71917;BME280;59793;46.506;6.674;2022-11-15T03:17:28;96894.94;;;11.10;76.10
71917;BME280;59793;46.506;6.674;2022-11-15T03:19:55;96898.66;;;10.89;77.02
71917;BME280;59793;46.506;6.674;2022-11-15T03:22:22;96890.47;;;10.94;77.44
71917;BME280;59793;46.506;6.674;2022-11-15T03:24:50;96879.84;;;10.91;78.14
71917;BME280;59793;46.506;6.674;2022-11-15T03:27:17;96876.31;;;10.83;77.79
71917;BME280;59793;46.506;6.674;2022-11-15T03:29:46;96881.88;;;10.78;76.93
71917;BME280;59793;46.506;6.674;2022-11-15T03:32:13;96873.00;;;10.86;73.48
71917;BME280;59793;46.506;6.674;2022-11-15T03:34:51;96863.22;;;10.87;74.25
71917;BME280;59793;46.506;6.674;2022-11-15T03:37:20;96860.22;;;10.88;73.00
71917;BME280;59793;46.506;6.674;2022-11-15T03:39:45;96860.22;;;10.88;73.38
71917;BME280;59793;46.506;6.674;2022-11-15T03:44:57;96845.59;;;10.91;72.73
71917;BME280;59793;46.506;6.674;2022-11-15T03:47:27;96841.66;;;11.00;72.47
71917;BME280;59793;46.506;6.674;2022-11-15T03:50:01;96840.66;;;11.09;71.73
71917;BME280;59793;46.506;6.674;2022-11-15T03:52:30;96836.06;;;11.06;71.89
71917;BME280;59793;46.506;6.674;2022-11-15T03:54:56;96835.81;;;11.11;74.68
71917;BME280;59793;46.506;6.674;2022-11-15T03:57:21;96842.81;;;10.84;76.88
71917;BME280;59793;46.506;6.674;2022-11-15T03:59:47;96831.78;;;10.59;77.87
71917;BME280;59793;46.506;6.674;2022-11-15T04:02:12;96832.75;;;10.50;77.62
71917;BME280;59793;46.506;6.674;2022-11-15T04:04:37;96825.25;;;10.52;76.58
71917;BME280;59793;46.506;6.674;2022-11-15T04:07:02;96823.34;;;10.49;77.52
71917;BME280;59793;46.506;6.674;2022-11-15T04:09:28;96823.47;;;10.57;75.90
71917;BME280;59793;46.506;6.674;2022-11-15T04:11:53;96824.72;;;10.63;76.93
71917;BME280;59793;46.506;6.674;2022-11-15T04:14:18;96840.19;;;10.64;77.88
71917;BME280;59793;46.506;6.674;2022-11-15T04:16:43;96836.38;;;10.62;78.26
71917;BME280;59793;46.506;6.674;2022-11-15T04:19:08;96833.22;;;10.56;78.26
71917;BME280;59793;46.506;6.674;2022-11-15T04:21:52;96830.03;;;10.47;79.17
71917;BME280;59793;46.506;6.674;2022-11-15T04:24:36;96822.41;;;10.42;78.33
71917;BME280;59793;46.506;6.674;2022-11-15T04:27:01;96823.34;;;10.49;78.07
71917;BME280;59793;46.506;6.674;2022-11-15T04:29:27;96816.59;;;10.52;77.11
71917;BME280;59793;46.506;6.674;2022-11-15T04:32:02;96808.06;;;10.59;76.87
71917;BME280;59793;46.506;6.674;2022-11-15T04:34:27;96808.22;;;10.66;77.38
71917;BME280;59793;46.506;6.674;2022-11-15T04:36:54;96811.69;;;10.70;77.02
71917;BME280;59793;46.506;6.674;2022-11-15T04:39:37;96809.75;;;10.86;76.68
71917;BME280;59793;46.506;6.674;2022-11-15T04:42:03;96808.50;;;10.80;76.92
71917;BME280;59793;46.506;6.674;2022-11-15T04:44:28;96824.63;;;10.59;79.03
71917;BME280;59793;46.506;6.674;2022-11-15T04:46:53;96815.00;;;10.47;79.43
71917;BME280;59793;46.506;6.674;2022-11-15T04:49:18;96809.69;;;10.28;80.38
71917;BME280;59793;46.506;6.674;2022-11-15T04:51:44;96805.72;;;10.02;81.38
71917;BME280;59793;46.506;6.674;2022-11-15T04:54:09;96803.63;;;10.08;81.63
71917;BME280;59793;46.506;6.674;2022-11-15T04:56:34;96810.47;;;10.13;81.83
71917;BME280;59793;46.506;6.674;2022-11-15T04:59:00;96814.84;;;10.24;81.89
71917;BME280;59793;46.506;6.674;2022-11-15T05:01:25;96808.31;;;10.34;81.76
71917;BME280;59793;46.506;6.674;2022-11-15T05:03:50;96810.19;;;10.34;80.81
71917;BME280;59793;46.506;6.674;2022-11-15T05:06:34;96811.88;;;10.42;81.04
71917;BME280;59793;46.506;6.674;2022-11-15T05:08:59;96810.28;;;10.37;81.89
71917;BME280;59793;46.506;6.674;2022-11-15T05:11:24;96810.19;;;10.34;82.13
71917;BME280;59793;46.506;6.674;2022-11-15T05:13:50;96811.06;;;10.22;82.17
71917;BME280;59793;46.506;6.674;2022-11-15T05:16:15;96810.22;;;10.18;82.36
71917;BME280;59793;46.506;6.674;2022-11-15T05:18:40;96819.47;;;10.27;82.30
71917;BME280;59793;46.506;6.674;2022-11-15T05:21:07;96814.63;;;10.29;82.52
71917;BME280;59793;46.506;6.674;2022-11-15T05:23:32;96815.47;;;10.34;82.32
71917;BME280;59793;46.506;6.674;2022-11-15T05:25:58;96812.28;;;10.44;81.83
71917;BME280;59793;46.506;6.674;2022-11-15T05:28:24;96813.97;;;10.52;81.53
71917;BME280;59793;46.506;6.674;2022-11-15T05:30:49;96804.19;;;10.52;81.39
71917;BME280;59793;46.506;6.674;2022-11-15T05:33:14;96806.81;;;10.52;81.08
71917;BME280;59793;46.506;6.674;2022-11-15T05:35:40;96806.75;;;10.49;80.34
71917;BME280;59793;46.506;6.674;2022-11-15T05:38:06;96807.59;;;10.53;79.91
71917;BME280;59793;46.506;6.674;2022-11-15T05:40:32;96808.75;;;10.56;78.65
71917;BME280;59793;46.506;6.674;2022-11-15T05:42:58;96804.06;;;10.65;77.82
71917;BME280;59793;46.506;6.674;2022-11-15T05:45:26;96798.25;;;10.75;77.49
71917;BME280;59793;46.506;6.674;2022-11-15T05:47:51;96809.00;;;10.86;76.62
71917;BME280;59793;46.506;6.674;2022-11-15T05:50:19;96803.03;;;10.89;76.20
71917;BME280;59793;46.506;6.674;2022-11-15T05:52:44;96799.19;;;10.86;76.17
71917;BME280;59793;46.506;6.674;2022-11-15T05:55:11;96799.19;;;10.86;76.78
71917;BME280;59793;46.506;6.674;2022-11-15T05:57:36;96804.59;;;10.93;76.63
71917;BME280;59793;46.506;6.674;2022-11-15T06:00:02;96803.44;;;10.91;76.86
71917;BME280;59793;46.506;6.674;2022-11-15T06:02:28;96806.13;;;10.94;77.24
71917;BME280;59793;46.506;6.674;2022-11-15T06:04:53;96801.69;;;10.98;76.92
71917;BME280;59793;46.506;6.674;2022-11-15T06:07:18;96800.28;;;11.05;76.94
71917;BME280;59793;46.506;6.674;2022-11-15T06:09:44;96805.63;;;11.08;77.23
71917;BME280;59793;46.506;6.674;2022-11-15T06:12:09;96801.81;;;11.06;77.20
71917;BME280;59793;46.506;6.674;2022-11-15T06:14:34;96794.19;;;11.00;77.37
71917;BME280;59793;46.506;6.674;2022-11-15T06:16:59;96807.50;;;11.08;77.12
71917;BME280;59793;46.506;6.674;2022-11-15T06:19:24;96800.41;;;11.12;77.19
71917;BME280;59793;46.506;6.674;2022-11-15T06:21:50;96802.78;;;11.17;76.95
71917;BME280;59793;46.506;6.674;2022-11-15T06:24:15;96802.91;;;11.24;76.72
71917;BME280;59793;46.506;6.674;2022-11-15T06:26:40;96801.38;;;11.23;76.99
71917;BME280;59793;46.506;6.674;2022-11-15T06:29:05;96796.09;;;11.23;77.28
71917;BME280;59793;46.506;6.674;2022-11-15T06:31:30;96789.00;;;11.27;77.33
71917;BME280;59793;46.506;6.674;2022-11-15T06:33:56;96785.31;;;11.32;77.47
71917;BME280;59793;46.506;6.674;2022-11-15T06:36:21;96780.81;;;11.32;78.23
71917;BME280;59793;46.506;6.674;2022-11-15T06:38:46;96777.81;;;11.34;78.05
71917;BME280;59793;46.506;6.674;2022-11-15T06:41:12;96773.72;;;11.36;78.32
71917;BME280;59793;46.506;6.674;2022-11-15T06:43:38;96773.00;;;11.39;78.39
71917;BME280;59793;46.506;6.674;2022-11-15T06:46:03;96784.69;;;11.38;78.49
71917;BME280;59793;46.506;6.674;2022-11-15T06:48:29;96786.25;;;11.43;78.63
71917;BME280;59793;46.506;6.674;2022-11-15T06:50:55;96788.97;;;11.46;78.46
71917;BME280;59793;46.506;6.674;2022-11-15T06:53:21;96788.97;;;11.46;78.40
71917;BME280;59793;46.506;6.674;2022-11-15T06:55:47;96791.66;;;11.50;78.18
71917;BME280;59793;46.506;6.674;2022-11-15T06:58:12;96797.75;;;11.54;78.33
71917;BME280;59793;46.506;6.674;2022-11-15T07:00:37;96798.94;;;11.57;78.90
71917;BME280;59793;46.506;6.674;2022-11-15T07:03:03;96800.75;;;11.53;79.33
71917;BME280;59793;46.506;6.674;2022-11-15T07:05:28;96797.69;;;11.51;79.58
71917;BME280;59793;46.506;6.674;2022-11-15T07:07:54;96810.47;;;11.48;80.19
71917;BME280;59793;46.506;6.674;2022-11-15T07:10:20;96804.72;;;11.43;80.26
71917;BME280;59793;46.506;6.674;2022-11-15T07:12:47;96808.59;;;11.49;79.94
71917;BME280;59793;46.506;6.674;2022-11-15T07:15:12;96806.31;;;11.47;79.75
71917;BME280;59793;46.506;6.674;2022-11-15T07:17:37;96821.09;;;11.52;79.32
71917;BME280;59793;46.506;6.674;2022-11-15T07:20:03;96824.88;;;11.55;79.24
71917;BME280;59793;46.506;6.674;2022-11-15T07:22:28;96826.81;;;11.58;80.02
71917;BME280;59793;46.506;6.674;2022-11-15T07:24:53;96819.50;;;11.47;79.37
71917;BME280;59793;46.506;6.674;2022-11-15T07:27:19;96822.94;;;11.52;79.13
71917;BME280;59793;46.506;6.674;2022-11-15T07:29:44;96818.50;;;11.56;78.75
71917;BME280;59793;46.506;6.674;2022-11-15T07:32:09;96811.75;;;11.58;78.08
71917;BME280;59793;46.506;6.674;2022-11-15T07:34:34;96811.41;;;11.60;73.64
71917;BME280;59793;46.506;6.674;2022-11-15T07:37:00;96816.28;;;11.58;75.14
71917;BME280;59793;46.506;6.674;2022-11-15T07:39:25;96790.66;;;11.58;75.48
71917;BME280;59793;46.506;6.674;2022-11-15T07:41:50;96787.66;;;11.60;74.53
71917;BME280;59793;46.506;6.674;2022-11-15T07:44:35;96790.31;;;11.60;74.27
71917;BME280;59793;46.506;6.674;2022-11-15T07:47:00;96791.47;;;11.62;73.36
71917;BME280;59793;46.506;6.674;2022-11-15T07:49:26;96792.34;;;11.70;71.96
71917;BME280;59793;46.506;6.674;2022-11-15T07:51:51;96790.16;;;11.76;72.56
71917;BME280;59793;46.506;6.674;2022-11-15T07:54:16;96780.06;;;11.81;72.58
71917;BME280;59793;46.506;6.674;2022-11-15T07:56:42;96773.00;;;11.85;71.63
71917;BME280;59793;46.506;6.674;2022-11-15T07:59:07;96780.16;;;11.85;70.79
71917;BME280;59793;46.506;6.674;2022-11-15T08:01:32;96768.53;;;11.89;70.72
71917;BME280;59793;46.506;6.674;2022-11-15T08:03:57;96777.38;;;11.78;69.74
71917;BME280;59793;46.506;6.674;2022-11-15T08:06:23;96769.91;;;11.83;69.94
71917;BME280;59793;46.506;6.674;2022-11-15T08:08:48;96771.47;;;11.84;65.79
71917;BME280;59793;46.506;6.674;2022-11-15T08:11:13;96764.75;;;11.90;65.54
71917;BME280;59793;46.506;6.674;2022-11-15T08:13:38;96766.69;;;11.93;66.58
71917;BME280;59793;46.506;6.674;2022-11-15T08:16:04;96767.22;;;12.03;67.74
71917;BME280;59793;46.506;6.674;2022-11-15T08:18:30;96777.81;;;12.06;67.58
71917;BME280;59793;46.506;6.674;2022-11-15T08:20:58;96768.44;;;12.09;69.58
71917;BME280;59793;46.506;6.674;2022-11-15T08:23:23;96767.25;;;12.06;71.58
71917;BME280;59793;46.506;6.674;2022-11-15T08:25:48;96771.03;;;12.05;72.31
71917;BME280;59793;46.506;6.674;2022-11-15T08:28:15;96765.28;;;12.00;72.07
71917;BME280;59793;46.506;6.674;2022-11-15T08:30:41;96771.38;;;12.04;72.20
71917;BME280;59793;46.506;6.674;2022-11-15T08:33:10;96777.88;;;12.10;71.14
71917;BME280;59793;46.506;6.674;2022-11-15T08:35:35;96762.38;;;12.08;70.55
71917;BME280;59793;46.506;6.674;2022-11-15T08:38:00;96760.41;;;12.02;72.19
71917;BME280;59793;46.506;6.674;2022-11-15T08:40:25;96757.56;;;11.87;72.72
71917;BME280;59793;46.506;6.674;2022-11-15T08:42:52;96754.81;;;11.80;73.10
71917;BME280;59793;46.506;6.674;2022-11-15T08:45:17;96756.28;;;11.78;72.63
71917;BME280;59793;46.506;6.674;2022-11-15T08:47:42;96750.53;;;11.72;71.97
71917;BME280;59793;46.506;6.674;2022-11-15T08:50:07;96754.81;;;11.80;72.54
71917;BME280;59793;46.506;6.674;2022-11-15T08:52:33;96742.94;;;11.93;71.57
71917;BME280;59793;46.506;6.674;2022-11-15T08:54:58;96734.28;;;11.70;72.73
71917;BME280;59793;46.506;6.674;2022-11-15T08:57:23;96736.94;;;11.70;73.60
71917;BME280;59793;46.506;6.674;2022-11-15T08:59:49;96736.03;;;11.85;74.29
71917;BME280;59793;46.506;6.674;2022-11-15T09:02:14;96726.28;;;11.89;73.52
71917;BME280;59793;46.506;6.674;2022-11-15T09:04:40;96735.34;;;11.88;72.93
71917;BME280;59793;46.506;6.674;2022-11-15T09:07:06;96728.13;;;11.85;71.45
71917;BME280;59793;46.506;6.674;2022-11-15T09:09:31;96728.63;;;11.94;70.43
71917;BME280;59793;46.506;6.674;2022-11-15T09:11:57;96721.00;;;11.89;69.72
71917;BME280;59793;46.506;6.674;2022-11-15T09:14:22;96724.22;;;12.02;69.57
71917;BME280;59793;46.506;6.674;2022-11-15T09:16:47;96722.91;;;12.19;69.62
71917;BME280;59793;46.506;6.674;2022-11-15T09:19:12;96720.75;;;12.28;68.40
71917;BME280;59793;46.506;6.674;2022-11-15T09:21:39;96716.03;;;12.44;66.96
71917;BME280;59793;46.506;6.674;2022-11-15T09:24:05;96717.16;;;12.43;67.98
71917;BME280;59793;46.506;6.674;2022-11-15T09:26:30;96716.09;;;12.48;68.57
71917;BME280;59793;46.506;6.674;2022-11-15T09:28:55;96719.88;;;12.51;70.18
71917;BME280;59793;46.506;6.674;2022-11-15T09:31:20;96727.78;;;12.51;71.94
71917;BME280;59793;46.506;6.674;2022-11-15T09:33:46;96726.69;;;12.52;72.03
71917;BME280;59793;46.506;6.674;2022-11-15T09:36:11;96724.09;;;12.55;72.25
71917;BME280;59793;46.506;6.674;2022-11-15T09:38:36;96733.81;;;12.48;71.74
71917;BME280;59793;46.506;6.674;2022-11-15T09:41:13;96727.34;;;12.41;72.52
71917;BME280;59793;46.506;6.674;2022-11-15T09:48:51;96717.22;;;12.51;72.38
71917;BME280;59793;46.506;6.674;2022-11-15T09:51:34;96727.16;;;12.61;72.72
71917;BME280;59793;46.506;6.674;2022-11-15T09:54:03;96717.47;;;12.72;72.05
71917;BME280;59793;46.506;6.674;2022-11-15T09:56:30;96713.72;;;12.73;70.94
71917;BME280;59793;46.506;6.674;2022-11-15T10:04:25;96706.84;;;12.65;72.45
71917;BME280;59793;46.506;6.674;2022-11-15T10:07:04;96713.06;;;12.83;72.61
71917;BME280;59793;46.506;6.674;2022-11-15T10:09:34;96708.47;;;12.77;71.64
71917;BME280;59793;46.506;6.674;2022-11-15T10:12:01;96712.66;;;12.81;72.51
71917;BME280;59793;46.506;6.674;2022-11-15T10:14:26;96707.50;;;12.96;72.73
71917;BME280;59793;46.506;6.674;2022-11-15T10:22:13;96695.94;;;13.11;72.85
71917;BME280;59793;46.506;6.674;2022-11-15T10:24:41;96693.00;;;13.23;72.62
71917;BME280;59793;46.506;6.674;2022-11-15T10:27:14;96681.75;;;13.30;72.40
71917;BME280;59793;46.506;6.674;2022-11-15T10:29:47;96674.25;;;13.43;71.70
71917;BME280;59793;46.506;6.674;2022-11-15T10:32:13;96661.47;;;13.52;70.75
71917;BME280;59793;46.506;6.674;2022-11-15T10:34:39;96648.66;;;13.57;68.59
71917;BME280;59793;46.506;6.674;2022-11-15T10:37:04;96652.06;;;13.58;67.27
71917;BME280;59793;46.506;6.674;2022-11-15T10:39:29;96651.66;;;13.56;65.70
71917;BME280;59793;46.506;6.674;2022-11-15T10:41:54;96663.66;;;13.43;66.26
71917;BME280;59793;46.506;6.674;2022-11-15T10:44:21;96662.88;;;13.38;64.67
71917;BME280;59793;46.506;6.674;2022-11-15T10:52:00;96645.88;;;13.36;61.50
71917;BME280;59793;46.506;6.674;2022-11-15T10:54:40;96640.66;;;13.47;61.25
71917;BME280;59793;46.506;6.674;2022-11-15T10:57:07;96637.97;;;13.39;62.91
71917;BME280;59793;46.506;6.674;2022-11-15T10:59:35;96627.44;;;13.47;63.06
71917;BME280;59793;46.506;6.674;2022-11-15T11:02:02;96628.91;;;13.44;62.56
71917;BME280;59793;46.506;6.674;2022-11-15T11:04:27;96634.28;;;13.55;63.01
71917;BME280;59793;46.506;6.674;2022-11-15T11:06:57;96619.56;;;13.61;61.94
71917;BME280;59793;46.506;6.674;2022-11-15T11:09:32;96619.94;;;13.63;62.31
71917;BME280;59793;46.506;6.674;2022-11-15T11:11:57;96616.53;;;13.59;62.47
71917;BME280;59793;46.506;6.674;2022-11-15T11:14:24;96616.19;;;13.64;62.63
71917;BME280;59793;46.506;6.674;2022-11-15T11:21:56;96603.34;;;13.70;63.00
71917;BME280;59793;46.506;6.674;2022-11-15T11:24:28;96607.16;;;13.79;60.49
71917;BME280;59793;46.506;6.674;2022-11-15T11:29:44;96602.59;;;13.76;61.75
71917;BME280;59793;46.506;6.674;2022-11-15T11:40:28;96586.53;;;13.33;62.81
71917;BME280;59793;46.506;6.674;2022-11-15T11:48:12;96567.72;;;13.60;61.67
71917;BME280;59793;46.506;6.674;2022-11-15T11:50:38;96555.69;;;13.70;62.44
71917;BME280;59793;46.506;6.674;2022-11-15T11:53:14;96554.13;;;13.58;63.85
71917;BME280;59793;46.506;6.674;2022-11-15T12:01:14;96545.22;;;13.18;67.47
71917;BME280;59793;46.506;6.674;2022-11-15T12:03:45;96543.28;;;13.11;67.96
71917;BME280;59793;46.506;6.674;2022-11-15T12:06:31;96550.09;;;13.16;67.06
71917;BME280;59793;46.506;6.674;2022-11-15T12:11:29;96528.53;;;13.10;67.64
71917;BME280;59793;46.506;6.674;2022-11-15T12:13:58;96530.72;;;12.98;68.63
71917;BME280;59793;46.506;6.674;2022-11-15T12:16:28;96524.34;;;13.06;68.45
71917;BME280;59793;46.506;6.674;2022-11-15T12:18:55;96517.47;;;12.90;68.63
71917;BME280;59793;46.506;6.674;2022-11-15T12:23:51;96521.75;;;13.13;68.14
71917;BME280;59793;46.506;6.674;2022-11-15T12:26:19;96519.50;;;13.15;67.08
71917;BME280;59793;46.506;6.674;2022-11-15T12:28:48;96519.13;;;13.20;67.34
71917;BME280;59793;46.506;6.674;2022-11-15T12:33:43;96504.13;;;13.35;66.61
71917;BME280;59793;46.506;6.674;2022-11-15T12:36:29;96495.81;;;13.33;67.18
71917;BME280;59793;46.506;6.674;2022-11-15T12:41:21;96495.66;;;13.08;67.41
71917;BME280;59793;46.506;6.674;2022-11-15T12:43:47;96481.31;;;13.09;68.29
71917;BME280;59793;46.506;6.674;2022-11-15T12:48:54;96477.13;;;13.01;68.76
71917;BME280;59793;46.506;6.674;2022-11-15T12:51:20;96477.53;;;13.10;68.42
71917;BME280;59793;46.506;6.674;2022-11-15T12:53:46;96474.81;;;12.99;68.05
71917;BME280;59793;46.506;6.674;2022-11-15T13:01:08;96466.84;;;12.92;71.23
71917;BME280;59793;46.506;6.674;2022-11-15T13:03:33;96466.88;;;12.96;71.64
71917;BME280;59793;46.506;6.674;2022-11-15T13:06:00;96462.72;;;12.95;72.32
71917;BME280;59793;46.506;6.674;2022-11-15T13:08:38;96450.34;;;13.13;72.06
71917;BME280;59793;46.506;6.674;2022-11-15T13:13:48;96445.00;;;12.99;74.35
71917;BME280;59793;46.506;6.674;2022-11-15T13:16:17;96443.06;;;12.96;75.17
71917;BME280;59793;46.506;6.674;2022-11-15T13:18:46;96438.16;;;12.90;76.45
71917;BME280;59793;46.506;6.674;2022-11-15T13:21:19;96443.72;;;12.75;77.69
71917;BME280;59793;46.506;6.674;2022-11-15T13:24:03;96445.63;;;12.74;78.44
71917;BME280;59793;46.506;6.674;2022-11-15T13:26:28;96431.34;;;12.93;77.91
71917;BME280;59793;46.506;6.674;2022-11-15T13:28:54;96422.34;;;13.01;77.37
71917;BME280;59793;46.506;6.674;2022-11-15T13:33:46;96409.50;;;13.10;76.76
71917;BME280;59793;46.506;6.674;2022-11-15T13:36:15;96410.41;;;13.32;75.87
71917;BME280;59793;46.506;6.674;2022-11-15T13:38:43;96411.19;;;13.51;75.70
71917;BME280;59793;46.506;6.674;2022-11-15T13:43:37;96414.91;;;13.35;76.78
71917;BME280;59793;46.506;6.674;2022-11-15T13:48:30;96404.41;;;13.53;76.02
71917;BME280;59793;46.506;6.674;2022-11-15T13:50:55;96401.78;;;13.64;75.11
71917;BME280;59793;46.506;6.674;2022-11-15T13:53:21;96398.75;;;13.83;74.60
71917;BME280;59793;46.506;6.674;2022-11-15T13:55:47;96381.72;;;14.06;74.49
71917;BME280;59793;46.506;6.674;2022-11-15T13:58:12;96388.16;;;14.33;72.99
71917;BME280;59793;46.506;6.674;2022-11-15T14:00:44;96394.94;;;14.49;71.77
71917;BME280;59793;46.506;6.674;2022-11-15T14:05:40;96385.50;;;14.37;72.51
71917;BME280;59793;46.506;6.674;2022-11-15T14:10:40;96381.34;;;14.32;72.53
71917;BME280;59793;46.506;6.674;2022-11-15T14:13:26;96383.22;;;14.35;71.64
71917;BME280;59793;46.506;6.674;2022-11-15T14:15:51;96376.81;;;14.15;71.78
71917;BME280;59793;46.506;6.674;2022-11-15T14:21:06;96365.84;;;13.92;73.64
71917;BME280;59793;46.506;6.674;2022-11-15T14:23:32;96366.97;;;13.98;72.65
71917;BME280;59793;46.506;6.674;2022-11-15T14:25:58;96371.13;;;13.88;73.04
71917;BME280;59793;46.506;6.674;2022-11-15T14:30:50;96369.22;;;13.53;73.62
71917;BME280;59793;46.506;6.674;2022-11-15T14:35:44;96359.78;;;13.73;72.98
71917;BME280;59793;46.506;6.674;2022-11-15T14:38:10;96344.66;;;13.81;72.97
71917;BME280;59793;46.506;6.674;2022-11-15T14:40:35;96349.19;;;13.87;72.28
71917;BME280;59793;46.506;6.674;2022-11-15T14:43:00;96344.66;;;13.77;71.71
71917;BME280;59793;46.506;6.674;2022-11-15T14:45:26;96340.91;;;13.57;73.43
71917;BME280;59793;46.506;6.674;2022-11-15T14:47:52;96347.69;;;13.76;72.64
71917;BME280;59793;46.506;6.674;2022-11-15T14:50:18;96351.81;;;13.45;72.55
71917;BME280;59793;46.506;6.674;2022-11-15T14:52:43;96350.66;;;13.31;73.52